Buoy 43563

sailwx.info

Track history (hours):
 
Tides and Currents Weather Stations Pressure Air Temp Water Temp Dewpoint Dewpoint Depression Visibility Wind Speed Wind Dir Waves Ship Positions

Drifting buoy 43563

Last reported at 2014-Jul-01 11:11 UTC. Time now 2014-Jul-24 19:22 UTC.
Position N 17°42' W 088°00'.
Warning: this ship's position is 23 days out of date.

Water temperature 28.7 ° C

Date/timePositionNaut miles runAvg speedWind from/ knotsBaromVisibWave heightAir tempDewpointWater temp
2014-Jul-01 11:11N 17°42' W 088°00'0 0.0 28.7
2014-Jul-01 10:59N 17°42' W 088°00'0 1.0 28.7
2014-Jul-01 10:54N 17°42' W 088°00'0 0.0 28.7
2014-Jul-01 10:30N 17°42' W 088°00'0 0.6 28.7
2014-Jul-01 10:21N 17°42' W 088°00'0 0.0 28.7
2014-Jul-01 04:57N 17°42' W 088°01'0 0.0 28.8
2014-Jul-01 04:07N 17°42' W 088°01'0 0.0
2014-Jul-01 03:20N 17°42' W 088°01'0 0.7 28.8
2014-Jul-01 03:15N 17°42' W 088°01'1 0.7 28.9
2014-Jul-01 02:31N 17°42' W 088°00'0 3.2 29.0
2014-Jul-01 02:25N 17°42' W 088°00'0 0.6 29.0
2014-Jul-01 01:50N 17°42' W 088°00'0 1.1 29.0
2014-Jul-01 01:34N 17°42' W 088°00'0 0.0 29.0
2014-Jul-01 00:15N 17°42' W 088°00'1 4.3 29.1
2014-Jul-01 00:06N 17°43' W 088°01'0 0.0 29.1
2014-Jun-30 23:35N 17°43' W 088°01'1 0.5 29.2
2014-Jun-30 22:33N 17°42' W 088°00'0 0.3 29.2
2014-Jun-30 21:55N 17°42' W 088°01'0 0.0 29.0
2014-Jun-30 21:48N 17°42' W 088°01'0 0.2 29.0
2014-Jun-30 20:57N 17°42' W 088°00'0 0.2 29.0
2014-Jun-30 20:11N 17°42' W 088°00'0 0.0 28.9
2014-Jun-30 19:16N 17°42' W 088°00'0 1.2 28.9
2014-Jun-30 19:10N 17°42' W 088°00'0 0.0 28.9
2014-Jun-30 16:10N 17°42' W 088°00'0 0.0 28.7
2014-Jun-30 16:08N 17°42' W 088°00'0 0.2 28.7
2014-Jun-30 15:21N 17°42' W 088°00'0 0.1 28.7
2014-Jun-30 14:27N 17°42' W 088°00'0 0.1 28.7
2014-Jun-30 11:45N 17°43' W 088°00'0 2.8 28.7
2014-Jun-30 11:41N 17°42' W 088°00'0 0.0 28.7
2014-Jun-30 11:19N 17°42' W 088°00'0 0.7 28.7
2014-Jun-30 10:42N 17°42' W 088°00'0 0.3 28.7
2014-Jun-30 09:41N 17°42' W 088°00'0 0.0 28.7
2014-Jun-30 09:00N 17°42' W 088°00'0 0.1 28.7
2014-Jun-30 08:00N 17°42' W 088°00'0 0.1 28.7
2014-Jun-30 03:38N 17°42' W 088°00'0 0.2 28.9
2014-Jun-30 02:44N 17°42' W 088°00'0 0.0 28.9
2014-Jun-30 02:00N 17°42' W 088°00'0 0.9 28.9
2014-Jun-30 01:56N 17°42' W 088°00'0 0.0 28.9
2014-Jun-30 00:45N 17°42' W 088°00'0 0.3 29.0
2014-Jun-30 00:30N 17°42' W 088°00'0 0.2
2014-Jun-29 23:05N 17°42' W 088°00'0 3.5 29.0
2014-Jun-29 23:00N 17°42' W 088°00'0 1.2 29.0
2014-Jun-29 22:45N 17°42' W 088°00'0 0.0
2014-Jun-29 22:08N 17°42' W 088°00'0 2.3 29.0
2014-Jun-29 21:57N 17°42' W 088°00'0 0.0 29.0
2014-Jun-29 21:14N 17°42' W 088°00'0 0.0 29.0
2014-Jun-29 21:09N 17°42' W 088°00'0 0.4 29.0
2014-Jun-29 20:26N 17°42' W 088°00'1 0.7 29.0
2014-Jun-29 19:31N 17°42' W 088°01'1 3.5 28.9
2014-Jun-29 19:22N 17°43' W 088°00'0 0.1 28.9
2014-Jun-29 16:28N 17°43' W 088°00'0 0.1 28.7
2014-Jun-29 15:43N 17°42' W 088°00'0 0.2 28.7
2014-Jun-29 14:46N 17°43' W 088°00'0 0.1 28.6
2014-Jun-29 12:22N 17°42' W 088°00'0 0.3 28.4
2014-Jun-29 12:12N 17°42' W 088°00'0 0.0 28.4
2014-Jun-29 11:42N 17°42' W 088°00'0 0.0 28.4
2014-Jun-29 10:55N 17°42' W 088°00'0 2.2 28.4
2014-Jun-29 10:45N 17°43' W 088°01'0 0.0 28.4
2014-Jun-29 10:04N 17°43' W 088°01'0 0.2 28.4
2014-Jun-29 09:13N 17°42' W 088°00'0 0.1 28.4
2014-Jun-29 08:14N 17°42' W 088°00'0 5.0 28.4
2014-Jun-29 08:09N 17°42' W 088°00'1 8.8 28.4
2014-Jun-29 08:05N 17°43' W 088°00'0 0.2 28.4
2014-Jun-29 06:27N 17°42' W 088°00'0 0.0 28.5
2014-Jun-29 04:00N 17°42' W 088°00'020.3
2014-Jun-29 03:59N 17°42' W 088°00'0 0.0 28.6
2014-Jun-29 03:15N 17°42' W 088°00'0 0.2 28.7
2014-Jun-29 02:21N 17°42' W 088°00'0 3.3 28.7
2014-Jun-29 02:15N 17°42' W 088°01'0 0.1 28.8
2014-Jun-28 23:37N 17°42' W 088°01'1 0.5 28.7
2014-Jun-28 22:16N 17°42' W 088°00'0 0.1 28.8
2014-Jun-28 21:38N 17°42' W 088°00'0 0.2 28.9
2014-Jun-28 20:37N 17°43' W 088°00'0 0.3 28.9
2014-Jun-28 19:41N 17°42' W 088°00'1 3.6 28.8
2014-Jun-28 19:30N 17°43' W 088°01'1 0.4 28.8
2014-Jun-28 17:58N 17°42' W 088°00'0 0.0 28.5
2014-Jun-28 16:47N 17°42' W 088°00'0 0.0 28.5
2014-Jun-28 16:03N 17°42' W 088°00'0 0.1 28.5
2014-Jun-28 15:09N 17°42' W 088°00'0 0.0
2014-Jun-28 15:08N 17°42' W 088°00'0 0.1 28.5
2014-Jun-28 12:51N 17°42' W 088°00'0 0.3 28.4
2014-Jun-28 12:12N 17°42' W 088°00'0 0.6 28.4
2014-Jun-28 12:04N 17°42' W 088°00'0 0.0 28.4
2014-Jun-28 11:14N 17°42' W 088°00'0 0.4 28.4
2014-Jun-28 11:06N 17°42' W 088°00'0 0.0 28.4
2014-Jun-28 10:30N 17°42' W 088°00'0 1.7
2014-Jun-28 10:27N 17°42' W 088°00'0 0.1 28.4
2014-Jun-28 09:18N 17°42' W 088°00'0 2.6 28.5
2014-Jun-28 09:15N 17°42' W 088°00'0 0.1 28.5
2014-Jun-28 08:21N 17°42' W 088°00'0 0.0 28.5
2014-Jun-28 04:22N 17°43' W 088°00'0 5.0 28.5
2014-Jun-28 04:19N 17°42' W 088°00'0 0.0 28.5
2014-Jun-28 03:35N 17°42' W 088°00'0 0.1 28.6
2014-Jun-28 02:43N 17°42' W 088°00'0 5.6 28.6
2014-Jun-28 02:38N 17°42' W 088°01'0 0.4 28.6
2014-Jun-28 01:50N 17°42' W 088°01'0 3.6
2014-Jun-28 01:45N 17°42' W 088°01'0 0.2 28.6
2014-Jun-28 00:08N 17°42' W 088°01'0 1.1 28.6
2014-Jun-27 23:41N 17°42' W 088°00'0 0.0 28.7
2014-Jun-27 22:29N 17°42' W 088°00'0 1.6 28.8
2014-Jun-27 22:21N 17°42' W 088°00'0 0.0 28.8
2014-Jun-27 22:04N 17°42' W 088°00'0 0.1 28.8
2014-Jun-27 20:47N 17°42' W 088°00'0 2.3 28.7
2014-Jun-27 20:40N 17°43' W 088°00'0 0.0 28.7
2014-Jun-27 19:53N 17°43' W 088°00'0 1.0 28.7
2014-Jun-27 19:46N 17°43' W 088°00'0 5.2 28.7
2014-Jun-27 19:42N 17°42' W 088°00'0 0.0 28.7
2014-Jun-27 18:08N 17°42' W 088°00'115.3 28.6
2014-Jun-27 18:06N 17°43' W 088°00'0 0.0 28.6
2014-Jun-27 17:09N 17°43' W 088°00'0 0.1 28.5
2014-Jun-27 15:30N 17°43' W 088°00'0 0.5 28.5
2014-Jun-27 14:37N 17°43' W 088°00'0 0.0
2014-Jun-27 13:22N 17°43' W 088°00'0 0.5 28.4
2014-Jun-27 12:33N 17°42' W 088°00'0 0.0 28.4
2014-Jun-27 11:45N 17°42' W 088°00'0 1.1 28.4
2014-Jun-27 11:36N 17°42' W 088°00'0 0.0 28.4
2014-Jun-27 11:15N 17°42' W 088°00'0 0.8 28.4
2014-Jun-27 11:06N 17°42' W 088°00'0 0.0 28.4
2014-Jun-27 10:59N 17°42' W 088°00'0 1.3 28.4
2014-Jun-27 10:51N 17°42' W 088°00'0 0.1 28.4
2014-Jun-27 09:37N 17°42' W 088°00'0 0.5 28.5
2014-Jun-27 09:30N 17°42' W 088°00'0 1.2 28.5
2014-Jun-27 09:26N 17°42' W 088°00'0 0.0 28.5
2014-Jun-27 08:30N 17°42' W 088°00'0 3.4 28.5
2014-Jun-27 08:29N 17°42' W 088°00'0 0.2 28.5
2014-Jun-27 06:50N 17°42' W 088°00'0 0.1 28.5
2014-Jun-27 03:46N 17°42' W 088°01'0 0.0 28.6
2014-Jun-27 03:03N 17°42' W 088°01'0 0.0 28.5
2014-Jun-27 02:59N 17°42' W 088°01'1 0.7 28.5
2014-Jun-27 02:15N 17°42' W 088°00'0 0.0 28.6
2014-Jun-27 00:40N 17°42' W 088°00'0 0.5 28.7
2014-Jun-27 00:09N 17°42' W 088°00'0 3.9 28.7
2014-Jun-27 00:05N 17°42' W 088°01'0 0.3 28.7
2014-Jun-26 22:57N 17°43' W 088°00'0 0.0 28.7
2014-Jun-26 22:41N 17°43' W 088°00'0 0.7 28.8
2014-Jun-26 22:23N 17°42' W 088°00'0 0.0 28.8
2014-Jun-26 21:01N 17°42' W 088°00'0 0.0 28.7
2014-Jun-26 20:53N 17°42' W 088°00'0 0.0 28.7
2014-Jun-26 20:00N 17°42' W 088°00'0 1.6 28.6
2014-Jun-26 19:53N 17°42' W 088°00'0 0.0 28.6
2014-Jun-26 18:22N 17°42' W 088°00'0 4.9 28.6
2014-Jun-26 18:19N 17°42' W 088°00'1 0.4 28.6
2014-Jun-26 16:44N 17°43' W 088°00'0 3.6 28.6
2014-Jun-26 16:38N 17°42' W 088°00'0 0.0 28.6
2014-Jun-26 15:52N 17°42' W 088°00'0 1.7 28.5
2014-Jun-26 15:50N 17°42' W 088°00'0 0.2 28.5
2014-Jun-26 15:01N 17°42' W 088°00'0 0.0 28.5
2014-Jun-26 14:08N 17°42' W 088°00'0 0.2 28.4
2014-Jun-26 12:56N 17°42' W 088°00'0 0.1 28.4
2014-Jun-26 12:06N 17°42' W 088°00'0 0.0 28.4
2014-Jun-26 11:27N 17°42' W 088°00'0 2.4 28.5
2014-Jun-26 11:20N 17°42' W 088°00'0 0.0 28.5
2014-Jun-26 11:15N 17°42' W 088°00'0 0.0 28.5
2014-Jun-26 09:45N 17°42' W 088°00'0 4.4 28.6
2014-Jun-26 09:41N 17°42' W 088°00'0 0.0 28.6
2014-Jun-26 08:45N 17°42' W 088°00'0 0.5 28.6
2014-Jun-26 08:38N 17°42' W 088°00'0 0.0 28.6
2014-Jun-26 07:08N 17°42' W 088°00'0 0.0 28.6
2014-Jun-26 07:03N 17°42' W 088°00'110.3 28.6
2014-Jun-26 07:00N 17°42' W 088°01'1 0.4 28.6
2014-Jun-26 04:59N 17°42' W 088°00'0 0.0 28.6
2014-Jun-26 04:15N 17°42' W 088°00'0 0.2 28.6
2014-Jun-26 03:24N 17°42' W 088°00'0 0.0 28.7
2014-Jun-26 03:19N 17°42' W 088°00'0 0.3 28.7
2014-Jun-26 01:39N 17°42' W 088°00'0 0.2 28.9
2014-Jun-25 23:30N 17°42' W 088°00'0 0.1 28.8
2014-Jun-25 22:52N 17°42' W 088°00'0 0.1 29.0
2014-Jun-25 21:14N 17°42' W 088°00'0 0.0 28.9
2014-Jun-25 21:10N 17°42' W 088°00'0 2.9 28.9
2014-Jun-25 21:04N 17°42' W 088°00'0 0.0 28.9
2014-Jun-25 20:14N 17°42' W 088°00'0 1.9 28.8
2014-Jun-25 20:10N 17°42' W 088°00'0 3.2 28.8
2014-Jun-25 20:05N 17°43' W 088°00'0 0.2 28.8
2014-Jun-25 18:30N 17°42' W 088°00'0 1.0 28.5
2014-Jun-25 18:25N 17°42' W 088°00'0 0.1 28.5
2014-Jun-25 15:25N 17°42' W 088°00'0 0.2 28.4
2014-Jun-25 14:30N 17°43' W 088°00'0 0.0 28.3
2014-Jun-25 12:47N 17°43' W 088°00'0 0.2 28.3
2014-Jun-25 11:46N 17°42' W 088°00'0 1.7 28.3
2014-Jun-25 11:40N 17°42' W 088°00'0 2.7 28.3
2014-Jun-25 11:37N 17°42' W 088°00'0 2.5 28.3
2014-Jun-25 11:30N 17°42' W 088°00'0 0.5 28.3
2014-Jun-25 11:08N 17°42' W 088°00'0 0.9 28.3
2014-Jun-25 10:59N 17°42' W 088°00'0 0.1 28.3
2014-Jun-25 10:05N 17°42' W 088°00'0 0.4 28.4
2014-Jun-25 09:53N 17°42' W 088°00'0 1.0 28.3
2014-Jun-25 09:48N 17°42' W 088°00'0 0.0 28.3
2014-Jun-25 09:00N 17°42' W 088°00'0 0.1 28.4
2014-Jun-25 07:20N 17°42' W 088°00'0 0.8 28.4
2014-Jun-25 07:10N 17°42' W 088°00'0 0.0 28.4
2014-Jun-25 04:30N 17°42' W 088°00'0 0.1
2014-Jun-25 03:44N 17°42' W 088°00'0 0.2 28.7
2014-Jun-25 02:57N 17°42' W 088°00'0 0.6 28.7
2014-Jun-25 02:48N 17°43' W 088°01'0 0.0 28.7
2014-Jun-25 02:04N 17°43' W 088°01'1 2.3 28.7
2014-Jun-25 01:41N 17°42' W 088°01'1 0.5 28.7
2014-Jun-25 00:05N 17°42' W 088°00'0 4.3 28.8
2014-Jun-25 00:00N 17°43' W 088°00'0 0.0 28.9
2014-Jun-24 23:21N 17°43' W 088°00'0 0.8 28.9
2014-Jun-24 23:02N 17°42' W 088°00'0 0.1 28.9
2014-Jun-24 21:22N 17°42' W 088°00'0 1.1 28.9
2014-Jun-24 21:15N 17°42' W 088°00'0 0.1 28.9
2014-Jun-24 20:24N 17°42' W 088°00'0 0.1 28.9
2014-Jun-24 18:43N 17°42' W 088°00'0 1.8 28.8
2014-Jun-24 18:36N 17°43' W 088°00'0 0.1 28.8
2014-Jun-24 15:46N 17°42' W 088°00'0 0.2 28.4
2014-Jun-24 14:55N 17°42' W 088°00'0 1.4 28.4
2014-Jun-24 14:45N 17°42' W 088°00'0 0.2 28.4
2014-Jun-24 13:16N 17°42' W 088°00'0 0.2 28.4
2014-Jun-24 12:05N 17°42' W 088°00'0 0.0 28.4
2014-Jun-24 11:44N 17°42' W 088°00'0 0.0 28.5
2014-Jun-24 11:31N 17°42' W 088°00'0 0.0 28.5
2014-Jun-24 10:30N 17°42' W 088°00'0 1.2
2014-Jun-24 10:26N 17°42' W 088°00'0 0.8 28.4
2014-Jun-24 10:10N 17°43' W 088°00'0 1.1 28.4
2014-Jun-24 10:03N 17°43' W 088°00'0 0.2 28.4
2014-Jun-24 09:08N 17°42' W 088°00'0 1.3 28.5
2014-Jun-24 09:02N 17°42' W 088°00'0 0.2 28.5
2014-Jun-24 07:24N 17°43' W 088°01'0 0.1 28.5
2014-Jun-24 04:05N 17°42' W 088°00'0 0.3 28.6
2014-Jun-24 03:18N 17°43' W 088°00'0 0.0 28.6
2014-Jun-24 02:24N 17°43' W 088°00'0 0.2 28.7
2014-Jun-24 00:35N 17°42' W 088°00'0 0.9 28.7
2014-Jun-24 00:31N 17°42' W 088°00'0 0.4 28.7
2014-Jun-23 23:13N 17°42' W 088°00'1 1.3 29.0
2014-Jun-23 22:50N 17°43' W 088°00'0 0.4 29.0
2014-Jun-23 22:02N 17°42' W 088°01'0 0.2 29.1
2014-Jun-23 21:35N 17°42' W 088°01'1 0.6 29.1
2014-Jun-23 20:36N 17°43' W 088°00'1 0.3 29.0
2014-Jun-23 18:56N 17°42' W 088°00'0 0.5 28.8
2014-Jun-23 18:48N 17°42' W 088°00'0 0.1 28.8
2014-Jun-23 16:06N 17°42' W 088°00'0 0.1 28.5
2014-Jun-23 15:14N 17°42' W 088°00'0 3.6 28.5
2014-Jun-23 15:13N 17°42' W 088°00'0 0.1 28.5
2014-Jun-23 12:00N 17°43' W 088°00'0 5.7 28.5
2014-Jun-23 11:58N 17°42' W 088°00'0 2.8 28.5
2014-Jun-23 11:54N 17°43' W 088°00'0 0.0 28.5
2014-Jun-23 10:52N 17°43' W 088°00'1 1.3 28.5
2014-Jun-23 10:22N 17°42' W 087°60'0 1.6 28.5
2014-Jun-23 10:15N 17°42' W 087°60'1 0.6 28.5
2014-Jun-23 09:20N 17°42' W 088°00'1 0.4 28.5
2014-Jun-23 07:42N 17°42' W 088°00'0 1.1 28.7
2014-Jun-23 07:35N 17°43' W 088°00'0 0.0 28.7
2014-Jun-23 04:25N 17°42' W 088°00'0 0.2 28.8
2014-Jun-23 03:37N 17°42' W 088°00'0 0.2 28.9
2014-Jun-23 02:45N 17°42' W 088°00'0 0.1 28.7
2014-Jun-23 01:04N 17°43' W 088°00'0 0.1 28.7
2014-Jun-23 00:07N 17°43' W 088°00'0 0.5 28.7
2014-Jun-22 23:25N 17°42' W 088°00'0 2.5 28.8
2014-Jun-22 23:23N 17°42' W 088°00'0 0.0 28.8
2014-Jun-22 22:28N 17°42' W 088°00'0 0.0 28.7
2014-Jun-22 21:46N 17°42' W 088°00'0 0.5 28.8
2014-Jun-22 21:39N 17°42' W 088°00'0 0.3 28.8
2014-Jun-22 20:45N 17°42' W 088°00'0 0.4 28.8
2014-Jun-22 20:01N 17°42' W 088°00'0 0.0 28.9
2014-Jun-22 19:04N 17°42' W 088°00'0 2.6 28.7
2014-Jun-22 18:57N 17°43' W 088°00'0 0.1 28.7
2014-Jun-22 16:20N 17°42' W 088°00'0 0.1
2014-Jun-22 14:43N 17°42' W 088°00'0 0.0 28.6
2014-Jun-22 12:42N 17°42' W 088°00'0 0.0 28.6
2014-Jun-22 11:15N 17°42' W 088°00'0 0.3 28.6
2014-Jun-22 11:02N 17°42' W 088°00'0 0.3 28.6
2014-Jun-22 10:34N 17°42' W 088°00'0 1.9 28.6
2014-Jun-22 10:26N 17°43' W 088°00'0 0.0 28.6
2014-Jun-22 10:21N 17°43' W 088°00'0 0.0 28.6
2014-Jun-22 08:49N 17°43' W 088°00'0 0.2 28.6
2014-Jun-22 07:54N 17°42' W 088°00'1 5.2 28.6
2014-Jun-22 07:46N 17°42' W 088°01'1 0.3 28.7
2014-Jun-22 04:44N 17°42' W 088°00'0 0.1 28.7
2014-Jun-22 03:53N 17°42' W 088°00'111.4 28.7
2014-Jun-22 03:50N 17°42' W 088°01'0 0.3 28.7
2014-Jun-22 02:58N 17°42' W 088°00'0 0.1 28.6
2014-Jun-22 02:15N 17°42' W 088°00'0 0.9 28.7
2014-Jun-22 02:11N 17°42' W 088°00'0 0.1 28.7
2014-Jun-22 01:34N 17°42' W 088°00'0 0.3 28.8
2014-Jun-22 01:22N 17°42' W 088°00'0 0.1 28.8
2014-Jun-21 23:57N 17°43' W 088°00'0 0.7 28.8
2014-Jun-21 23:34N 17°42' W 088°00'0 0.0 28.8
2014-Jun-21 22:51N 17°42' W 088°00'0 0.1 28.8
2014-Jun-21 21:58N 17°42' W 088°00'0 2.0 28.8
2014-Jun-21 21:49N 17°43' W 088°00'0 0.0 28.8
2014-Jun-21 21:08N 17°43' W 088°00'0 0.6 28.7
2014-Jun-21 20:55N 17°43' W 088°00'0 0.8 28.7
2014-Jun-21 20:16N 17°43' W 087°60'0 0.4 28.7
2014-Jun-21 19:15N 17°42' W 088°00'0 0.5 28.7
2014-Jun-21 19:08N 17°42' W 088°00'0 0.0 28.7
2014-Jun-21 15:58N 17°42' W 088°00'0 0.0 28.6
2014-Jun-21 15:55N 17°42' W 088°00'0 0.3 28.6
2014-Jun-21 15:03N 17°42' W 088°00'0 0.0 28.6
2014-Jun-21 14:09N 17°42' W 088°00'0 0.0 28.5
2014-Jun-21 13:09N 17°42' W 088°00'0 0.2 28.5
2014-Jun-21 11:39N 17°43' W 088°00'   28.5
Track history (hours):
 
Tides and Currents Weather Stations Pressure Air Temp Water Temp Dewpoint Dewpoint Depression Visibility Wind Speed Wind Dir Waves Ship Positions

Drifting buoy 43563

Last reported at 2014-Jul-01 11:11 UTC. Time now 2014-Jul-24 19:22 UTC.
Position N 17°42' W 088°00'.
Warning: this ship's position is 23 days out of date.

Water temperature 28.7 ° C

Date/timePositionNaut miles runAvg speedWind from/ knotsBaromVisibWave heightAir tempDewpointWater temp
2014-Jul-01 11:11N 17°42' W 088°00'0 0.0 28.7
2014-Jul-01 10:59N 17°42' W 088°00'0 1.0 28.7
2014-Jul-01 10:54N 17°42' W 088°00'0 0.0 28.7
2014-Jul-01 10:30N 17°42' W 088°00'0 0.6 28.7
2014-Jul-01 10:21N 17°42' W 088°00'0 0.0 28.7
2014-Jul-01 04:57N 17°42' W 088°01'0 0.0 28.8
2014-Jul-01 04:07N 17°42' W 088°01'0 0.0
2014-Jul-01 03:20N 17°42' W 088°01'0 0.7 28.8
2014-Jul-01 03:15N 17°42' W 088°01'1 0.7 28.9
2014-Jul-01 02:31N 17°42' W 088°00'0 3.2 29.0
2014-Jul-01 02:25N 17°42' W 088°00'0 0.6 29.0
2014-Jul-01 01:50N 17°42' W 088°00'0 1.1 29.0
2014-Jul-01 01:34N 17°42' W 088°00'0 0.0 29.0
2014-Jul-01 00:15N 17°42' W 088°00'1 4.3 29.1
2014-Jul-01 00:06N 17°43' W 088°01'0 0.0 29.1
2014-Jun-30 23:35N 17°43' W 088°01'1 0.5 29.2
2014-Jun-30 22:33N 17°42' W 088°00'0 0.3 29.2
2014-Jun-30 21:55N 17°42' W 088°01'0 0.0 29.0
2014-Jun-30 21:48N 17°42' W 088°01'0 0.2 29.0
2014-Jun-30 20:57N 17°42' W 088°00'0 0.2 29.0
2014-Jun-30 20:11N 17°42' W 088°00'0 0.0 28.9
2014-Jun-30 19:16N 17°42' W 088°00'0 1.2 28.9
2014-Jun-30 19:10N 17°42' W 088°00'0 0.0 28.9
2014-Jun-30 16:10N 17°42' W 088°00'0 0.0 28.7
2014-Jun-30 16:08N 17°42' W 088°00'0 0.2 28.7
2014-Jun-30 15:21N 17°42' W 088°00'0 0.1 28.7
2014-Jun-30 14:27N 17°42' W 088°00'0 0.1 28.7
2014-Jun-30 11:45N 17°43' W 088°00'0 2.8 28.7
2014-Jun-30 11:41N 17°42' W 088°00'0 0.0 28.7
2014-Jun-30 11:19N 17°42' W 088°00'0 0.7 28.7
2014-Jun-30 10:42N 17°42' W 088°00'0 0.3 28.7
2014-Jun-30 09:41N 17°42' W 088°00'0 0.0 28.7
2014-Jun-30 09:00N 17°42' W 088°00'0 0.1 28.7
2014-Jun-30 08:00N 17°42' W 088°00'0 0.1 28.7
2014-Jun-30 03:38N 17°42' W 088°00'0 0.2 28.9
2014-Jun-30 02:44N 17°42' W 088°00'0 0.0 28.9
2014-Jun-30 02:00N 17°42' W 088°00'0 0.9 28.9
2014-Jun-30 01:56N 17°42' W 088°00'0 0.0 28.9
2014-Jun-30 00:45N 17°42' W 088°00'0 0.3 29.0
2014-Jun-30 00:30N 17°42' W 088°00'0 0.2
2014-Jun-29 23:05N 17°42' W 088°00'0 3.5 29.0
2014-Jun-29 23:00N 17°42' W 088°00'0 1.2 29.0
2014-Jun-29 22:45N 17°42' W 088°00'0 0.0
2014-Jun-29 22:08N 17°42' W 088°00'0 2.3 29.0
2014-Jun-29 21:57N 17°42' W 088°00'0 0.0 29.0
2014-Jun-29 21:14N 17°42' W 088°00'0 0.0 29.0
2014-Jun-29 21:09N 17°42' W 088°00'0 0.4 29.0
2014-Jun-29 20:26N 17°42' W 088°00'1 0.7 29.0
2014-Jun-29 19:31N 17°42' W 088°01'1 3.5 28.9
2014-Jun-29 19:22N 17°43' W 088°00'0 0.1 28.9
2014-Jun-29 16:28N 17°43' W 088°00'0 0.1 28.7
2014-Jun-29 15:43N 17°42' W 088°00'0 0.2 28.7
2014-Jun-29 14:46N 17°43' W 088°00'0 0.1 28.6
2014-Jun-29 12:22N 17°42' W 088°00'0 0.3 28.4
2014-Jun-29 12:12N 17°42' W 088°00'0 0.0 28.4
2014-Jun-29 11:42N 17°42' W 088°00'0 0.0 28.4
2014-Jun-29 10:55N 17°42' W 088°00'0 2.2 28.4
2014-Jun-29 10:45N 17°43' W 088°01'0 0.0 28.4
2014-Jun-29 10:04N 17°43' W 088°01'0 0.2 28.4
2014-Jun-29 09:13N 17°42' W 088°00'0 0.1 28.4
2014-Jun-29 08:14N 17°42' W 088°00'0 5.0 28.4
2014-Jun-29 08:09N 17°42' W 088°00'1 8.8 28.4
2014-Jun-29 08:05N 17°43' W 088°00'0 0.2 28.4
2014-Jun-29 06:27N 17°42' W 088°00'0 0.0 28.5
2014-Jun-29 04:00N 17°42' W 088°00'020.3
2014-Jun-29 03:59N 17°42' W 088°00'0 0.0 28.6
2014-Jun-29 03:15N 17°42' W 088°00'0 0.2 28.7
2014-Jun-29 02:21N 17°42' W 088°00'0 3.3 28.7
2014-Jun-29 02:15N 17°42' W 088°01'0 0.1 28.8
2014-Jun-28 23:37N 17°42' W 088°01'1 0.5 28.7
2014-Jun-28 22:16N 17°42' W 088°00'0 0.1 28.8
2014-Jun-28 21:38N 17°42' W 088°00'0 0.2 28.9
2014-Jun-28 20:37N 17°43' W 088°00'0 0.3 28.9
2014-Jun-28 19:41N 17°42' W 088°00'1 3.6 28.8
2014-Jun-28 19:30N 17°43' W 088°01'1 0.4 28.8
2014-Jun-28 17:58N 17°42' W 088°00'0 0.0 28.5
2014-Jun-28 16:47N 17°42' W 088°00'0 0.0 28.5
2014-Jun-28 16:03N 17°42' W 088°00'0 0.1 28.5
2014-Jun-28 15:09N 17°42' W 088°00'0 0.0
2014-Jun-28 15:08N 17°42' W 088°00'0 0.1 28.5
2014-Jun-28 12:51N 17°42' W 088°00'0 0.3 28.4
2014-Jun-28 12:12N 17°42' W 088°00'0 0.6 28.4
2014-Jun-28 12:04N 17°42' W 088°00'0 0.0 28.4
2014-Jun-28 11:14N 17°42' W 088°00'0 0.4 28.4
2014-Jun-28 11:06N 17°42' W 088°00'0 0.0 28.4
2014-Jun-28 10:30N 17°42' W 088°00'0 1.7
2014-Jun-28 10:27N 17°42' W 088°00'0 0.1 28.4
2014-Jun-28 09:18N 17°42' W 088°00'0 2.6 28.5
2014-Jun-28 09:15N 17°42' W 088°00'0 0.1 28.5
2014-Jun-28 08:21N 17°42' W 088°00'0 0.0 28.5
2014-Jun-28 04:22N 17°43' W 088°00'0 5.0 28.5
2014-Jun-28 04:19N 17°42' W 088°00'0 0.0 28.5
2014-Jun-28 03:35N 17°42' W 088°00'0 0.1 28.6
2014-Jun-28 02:43N 17°42' W 088°00'0 5.6 28.6
2014-Jun-28 02:38N 17°42' W 088°01'0 0.4 28.6
2014-Jun-28 01:50N 17°42' W 088°01'0 3.6
2014-Jun-28 01:45N 17°42' W 088°01'0 0.2 28.6
2014-Jun-28 00:08N 17°42' W 088°01'0 1.1 28.6
2014-Jun-27 23:41N 17°42' W 088°00'0 0.0 28.7
2014-Jun-27 22:29N 17°42' W 088°00'0 1.6 28.8
2014-Jun-27 22:21N 17°42' W 088°00'0 0.0 28.8
2014-Jun-27 22:04N 17°42' W 088°00'0 0.1 28.8
2014-Jun-27 20:47N 17°42' W 088°00'0 2.3 28.7
2014-Jun-27 20:40N 17°43' W 088°00'0 0.0 28.7
2014-Jun-27 19:53N 17°43' W 088°00'0 1.0 28.7
2014-Jun-27 19:46N 17°43' W 088°00'0 5.2 28.7
2014-Jun-27 19:42N 17°42' W 088°00'0 0.0 28.7
2014-Jun-27 18:08N 17°42' W 088°00'115.3 28.6
2014-Jun-27 18:06N 17°43' W 088°00'0 0.0 28.6
2014-Jun-27 17:09N 17°43' W 088°00'0 0.1 28.5
2014-Jun-27 15:30N 17°43' W 088°00'0 0.5 28.5
2014-Jun-27 14:37N 17°43' W 088°00'0 0.0
2014-Jun-27 13:22N 17°43' W 088°00'0 0.5 28.4
2014-Jun-27 12:33N 17°42' W 088°00'0 0.0 28.4
2014-Jun-27 11:45N 17°42' W 088°00'0 1.1 28.4
2014-Jun-27 11:36N 17°42' W 088°00'0 0.0 28.4
2014-Jun-27 11:15N 17°42' W 088°00'0 0.8 28.4
2014-Jun-27 11:06N 17°42' W 088°00'0 0.0 28.4
2014-Jun-27 10:59N 17°42' W 088°00'0 1.3 28.4
2014-Jun-27 10:51N 17°42' W 088°00'0 0.1 28.4
2014-Jun-27 09:37N 17°42' W 088°00'0 0.5 28.5
2014-Jun-27 09:30N 17°42' W 088°00'0 1.2 28.5
2014-Jun-27 09:26N 17°42' W 088°00'0 0.0 28.5
2014-Jun-27 08:30N 17°42' W 088°00'0 3.4 28.5
2014-Jun-27 08:29N 17°42' W 088°00'0 0.2 28.5
2014-Jun-27 06:50N 17°42' W 088°00'0 0.1 28.5
2014-Jun-27 03:46N 17°42' W 088°01'0 0.0 28.6
2014-Jun-27 03:03N 17°42' W 088°01'0 0.0 28.5
2014-Jun-27 02:59N 17°42' W 088°01'1 0.7 28.5
2014-Jun-27 02:15N 17°42' W 088°00'0 0.0 28.6
2014-Jun-27 00:40N 17°42' W 088°00'0 0.5 28.7
2014-Jun-27 00:09N 17°42' W 088°00'0 3.9 28.7
2014-Jun-27 00:05N 17°42' W 088°01'0 0.3 28.7
2014-Jun-26 22:57N 17°43' W 088°00'0 0.0 28.7
2014-Jun-26 22:41N 17°43' W 088°00'0 0.7 28.8
2014-Jun-26 22:23N 17°42' W 088°00'0 0.0 28.8
2014-Jun-26 21:01N 17°42' W 088°00'0 0.0 28.7
2014-Jun-26 20:53N 17°42' W 088°00'0 0.0 28.7
2014-Jun-26 20:00N 17°42' W 088°00'0 1.6 28.6
2014-Jun-26 19:53N 17°42' W 088°00'0 0.0 28.6
2014-Jun-26 18:22N 17°42' W 088°00'0 4.9 28.6
2014-Jun-26 18:19N 17°42' W 088°00'1 0.4 28.6
2014-Jun-26 16:44N 17°43' W 088°00'0 3.6 28.6
2014-Jun-26 16:38N 17°42' W 088°00'0 0.0 28.6
2014-Jun-26 15:52N 17°42' W 088°00'0 1.7 28.5
2014-Jun-26 15:50N 17°42' W 088°00'0 0.2 28.5
2014-Jun-26 15:01N 17°42' W 088°00'0 0.0 28.5
2014-Jun-26 14:08N 17°42' W 088°00'0 0.2 28.4
2014-Jun-26 12:56N 17°42' W 088°00'0 0.1 28.4
2014-Jun-26 12:06N 17°42' W 088°00'0 0.0 28.4
2014-Jun-26 11:27N 17°42' W 088°00'0 2.4 28.5
2014-Jun-26 11:20N 17°42' W 088°00'0 0.0 28.5
2014-Jun-26 11:15N 17°42' W 088°00'0 0.0 28.5
2014-Jun-26 09:45N 17°42' W 088°00'0 4.4 28.6
2014-Jun-26 09:41N 17°42' W 088°00'0 0.0 28.6
2014-Jun-26 08:45N 17°42' W 088°00'0 0.5 28.6
2014-Jun-26 08:38N 17°42' W 088°00'0 0.0 28.6
2014-Jun-26 07:08N 17°42' W 088°00'0 0.0 28.6
2014-Jun-26 07:03N 17°42' W 088°00'110.3 28.6
2014-Jun-26 07:00N 17°42' W 088°01'1 0.4 28.6
2014-Jun-26 04:59N 17°42' W 088°00'0 0.0 28.6
2014-Jun-26 04:15N 17°42' W 088°00'0 0.2 28.6
2014-Jun-26 03:24N 17°42' W 088°00'0 0.0 28.7
2014-Jun-26 03:19N 17°42' W 088°00'0 0.3 28.7
2014-Jun-26 01:39N 17°42' W 088°00'0 0.2 28.9
2014-Jun-25 23:30N 17°42' W 088°00'0 0.1 28.8
2014-Jun-25 22:52N 17°42' W 088°00'0 0.1 29.0
2014-Jun-25 21:14N 17°42' W 088°00'0 0.0 28.9
2014-Jun-25 21:10N 17°42' W 088°00'0 2.9 28.9
2014-Jun-25 21:04N 17°42' W 088°00'0 0.0 28.9
2014-Jun-25 20:14N 17°42' W 088°00'0 1.9 28.8
2014-Jun-25 20:10N 17°42' W 088°00'0 3.2 28.8
2014-Jun-25 20:05N 17°43' W 088°00'0 0.2 28.8
2014-Jun-25 18:30N 17°42' W 088°00'0 1.0 28.5
2014-Jun-25 18:25N 17°42' W 088°00'0 0.1 28.5
2014-Jun-25 15:25N 17°42' W 088°00'0 0.2 28.4
2014-Jun-25 14:30N 17°43' W 088°00'0 0.0 28.3
2014-Jun-25 12:47N 17°43' W 088°00'0 0.2 28.3
2014-Jun-25 11:46N 17°42' W 088°00'0 1.7 28.3
2014-Jun-25 11:40N 17°42' W 088°00'0 2.7 28.3
2014-Jun-25 11:37N 17°42' W 088°00'0 2.5 28.3
2014-Jun-25 11:30N 17°42' W 088°00'0 0.5 28.3
2014-Jun-25 11:08N 17°42' W 088°00'0 0.9 28.3
2014-Jun-25 10:59N 17°42' W 088°00'0 0.1 28.3
2014-Jun-25 10:05N 17°42' W 088°00'0 0.4 28.4
2014-Jun-25 09:53N 17°42' W 088°00'0 1.0 28.3
2014-Jun-25 09:48N 17°42' W 088°00'0 0.0 28.3
2014-Jun-25 09:00N 17°42' W 088°00'0 0.1 28.4
2014-Jun-25 07:20N 17°42' W 088°00'0 0.8 28.4
2014-Jun-25 07:10N 17°42' W 088°00'0 0.0 28.4
2014-Jun-25 04:30N 17°42' W 088°00'0 0.1
2014-Jun-25 03:44N 17°42' W 088°00'0 0.2 28.7
2014-Jun-25 02:57N 17°42' W 088°00'0 0.6 28.7
2014-Jun-25 02:48N 17°43' W 088°01'0 0.0 28.7
2014-Jun-25 02:04N 17°43' W 088°01'1 2.3 28.7
2014-Jun-25 01:41N 17°42' W 088°01'1 0.5 28.7
2014-Jun-25 00:05N 17°42' W 088°00'0 4.3 28.8
2014-Jun-25 00:00N 17°43' W 088°00'0 0.0 28.9
2014-Jun-24 23:21N 17°43' W 088°00'0 0.8 28.9
2014-Jun-24 23:02N 17°42' W 088°00'0 0.1 28.9
2014-Jun-24 21:22N 17°42' W 088°00'0 1.1 28.9
2014-Jun-24 21:15N 17°42' W 088°00'0 0.1 28.9
2014-Jun-24 20:24N 17°42' W 088°00'0 0.1 28.9
2014-Jun-24 18:43N 17°42' W 088°00'0 1.8 28.8
2014-Jun-24 18:36N 17°43' W 088°00'0 0.1 28.8
2014-Jun-24 15:46N 17°42' W 088°00'0 0.2 28.4
2014-Jun-24 14:55N 17°42' W 088°00'0 1.4 28.4
2014-Jun-24 14:45N 17°42' W 088°00'0 0.2 28.4
2014-Jun-24 13:16N 17°42' W 088°00'0 0.2 28.4
2014-Jun-24 12:05N 17°42' W 088°00'0 0.0 28.4
2014-Jun-24 11:44N 17°42' W 088°00'0 0.0 28.5
2014-Jun-24 11:31N 17°42' W 088°00'0 0.0 28.5
2014-Jun-24 10:30N 17°42' W 088°00'0 1.2
2014-Jun-24 10:26N 17°42' W 088°00'0 0.8 28.4
2014-Jun-24 10:10N 17°43' W 088°00'0 1.1 28.4
2014-Jun-24 10:03N 17°43' W 088°00'0 0.2 28.4
2014-Jun-24 09:08N 17°42' W 088°00'0 1.3 28.5
2014-Jun-24 09:02N 17°42' W 088°00'0 0.2 28.5
2014-Jun-24 07:24N 17°43' W 088°01'0 0.1 28.5
2014-Jun-24 04:05N 17°42' W 088°00'0 0.3 28.6
2014-Jun-24 03:18N 17°43' W 088°00'0 0.0 28.6
2014-Jun-24 02:24N 17°43' W 088°00'0 0.2 28.7
2014-Jun-24 00:35N 17°42' W 088°00'0 0.9 28.7
2014-Jun-24 00:31N 17°42' W 088°00'0 0.4 28.7
2014-Jun-23 23:13N 17°42' W 088°00'1 1.3 29.0
2014-Jun-23 22:50N 17°43' W 088°00'0 0.4 29.0
2014-Jun-23 22:02N 17°42' W 088°01'0 0.2 29.1
2014-Jun-23 21:35N 17°42' W 088°01'1 0.6 29.1
2014-Jun-23 20:36N 17°43' W 088°00'1 0.3 29.0
2014-Jun-23 18:56N 17°42' W 088°00'0 0.5 28.8
2014-Jun-23 18:48N 17°42' W 088°00'0 0.1 28.8
2014-Jun-23 16:06N 17°42' W 088°00'0 0.1 28.5
2014-Jun-23 15:14N 17°42' W 088°00'0 3.6 28.5
2014-Jun-23 15:13N 17°42' W 088°00'0 0.1 28.5
2014-Jun-23 12:00N 17°43' W 088°00'0 5.7 28.5
2014-Jun-23 11:58N 17°42' W 088°00'0 2.8 28.5
2014-Jun-23 11:54N 17°43' W 088°00'0 0.0 28.5
2014-Jun-23 10:52N 17°43' W 088°00'1 1.3 28.5
2014-Jun-23 10:22N 17°42' W 087°60'0 1.6 28.5
2014-Jun-23 10:15N 17°42' W 087°60'1 0.6 28.5
2014-Jun-23 09:20N 17°42' W 088°00'1 0.4 28.5
2014-Jun-23 07:42N 17°42' W 088°00'0 1.1 28.7
2014-Jun-23 07:35N 17°43' W 088°00'0 0.0 28.7
2014-Jun-23 04:25N 17°42' W 088°00'0 0.2 28.8
2014-Jun-23 03:37N 17°42' W 088°00'0 0.2 28.9
2014-Jun-23 02:45N 17°42' W 088°00'0 0.1 28.7
2014-Jun-23 01:04N 17°43' W 088°00'0 0.1 28.7
2014-Jun-23 00:07N 17°43' W 088°00'0 0.5 28.7
2014-Jun-22 23:25N 17°42' W 088°00'0 2.5 28.8
2014-Jun-22 23:23N 17°42' W 088°00'0 0.0 28.8
2014-Jun-22 22:28N 17°42' W 088°00'0 0.0 28.7
2014-Jun-22 21:46N 17°42' W 088°00'0 0.5 28.8
2014-Jun-22 21:39N 17°42' W 088°00'0 0.3 28.8
2014-Jun-22 20:45N 17°42' W 088°00'0 0.4 28.8
2014-Jun-22 20:01N 17°42' W 088°00'0 0.0 28.9
2014-Jun-22 19:04N 17°42' W 088°00'0 2.6 28.7
2014-Jun-22 18:57N 17°43' W 088°00'0 0.1 28.7
2014-Jun-22 16:20N 17°42' W 088°00'0 0.1
2014-Jun-22 14:43N 17°42' W 088°00'0 0.0 28.6
2014-Jun-22 12:42N 17°42' W 088°00'0 0.0 28.6
2014-Jun-22 11:15N 17°42' W 088°00'0 0.3 28.6
2014-Jun-22 11:02N 17°42' W 088°00'0 0.3 28.6
2014-Jun-22 10:34N 17°42' W 088°00'0 1.9 28.6
2014-Jun-22 10:26N 17°43' W 088°00'0 0.0 28.6
2014-Jun-22 10:21N 17°43' W 088°00'0 0.0 28.6
2014-Jun-22 08:49N 17°43' W 088°00'0 0.2 28.6
2014-Jun-22 07:54N 17°42' W 088°00'1 5.2 28.6
2014-Jun-22 07:46N 17°42' W 088°01'1 0.3 28.7
2014-Jun-22 04:44N 17°42' W 088°00'0 0.1 28.7
2014-Jun-22 03:53N 17°42' W 088°00'111.4 28.7
2014-Jun-22 03:50N 17°42' W 088°01'0 0.3 28.7
2014-Jun-22 02:58N 17°42' W 088°00'0 0.1 28.6
2014-Jun-22 02:15N 17°42' W 088°00'0 0.9 28.7
2014-Jun-22 02:11N 17°42' W 088°00'0 0.1 28.7
2014-Jun-22 01:34N 17°42' W 088°00'0 0.3 28.8
2014-Jun-22 01:22N 17°42' W 088°00'0 0.1 28.8
2014-Jun-21 23:57N 17°43' W 088°00'0 0.7 28.8
2014-Jun-21 23:34N 17°42' W 088°00'0 0.0 28.8
2014-Jun-21 22:51N 17°42' W 088°00'0 0.1 28.8
2014-Jun-21 21:58N 17°42' W 088°00'0 2.0 28.8
2014-Jun-21 21:49N 17°43' W 088°00'0 0.0 28.8
2014-Jun-21 21:08N 17°43' W 088°00'0 0.6 28.7
2014-Jun-21 20:55N 17°43' W 088°00'0 0.8 28.7
2014-Jun-21 20:16N 17°43' W 087°60'0 0.4 28.7
2014-Jun-21 19:15N 17°42' W 088°00'0 0.5 28.7
2014-Jun-21 19:08N 17°42' W 088°00'0 0.0 28.7
2014-Jun-21 15:58N 17°42' W 088°00'0 0.0 28.6
2014-Jun-21 15:55N 17°42' W 088°00'0 0.3 28.6
2014-Jun-21 15:03N 17°42' W 088°00'0 0.0 28.6
2014-Jun-21 14:09N 17°42' W 088°00'0 0.0 28.5
2014-Jun-21 13:09N 17°42' W 088°00'0 0.2 28.5
2014-Jun-21 11:39N 17°43' W 088°00'   28.5

Dump ship's entire track history